createdAt,value
2018-08-17T00:00:16.784Z,73.67
2018-08-17T00:03:16.856Z,73.28
2018-08-17T00:04:16.880Z,72.9
2018-08-17T00:05:17.077Z,73.09
2018-08-17T00:06:16.672Z,73.38
2018-08-17T00:07:31.616Z,73.47
2018-08-17T00:08:16.978Z,73
2018-08-17T00:09:17.003Z,73.28
2018-08-17T00:10:17.033Z,73.57
2018-08-17T00:11:17.053Z,73.77
2018-08-17T00:12:17.079Z,73.86
2018-08-17T00:14:17.123Z,73.73
2018-08-17T00:15:17.151Z,73.25
2018-08-17T00:17:17.203Z,73.44
2018-08-17T00:19:17.247Z,73.63
2018-08-17T00:20:17.269Z,73.35
2018-08-17T00:21:17.039Z,73.57
2018-08-17T00:22:17.323Z,73.44
2018-08-17T00:23:32.014Z,73.44
2018-08-17T00:24:17.113Z,73.35
2018-08-17T00:25:17.392Z,73.63
2018-08-17T00:26:17.423Z,73.44
2018-08-17T00:27:17.443Z,72.96
2018-08-17T00:28:17.467Z,73.44
2018-08-17T00:29:17.498Z,73.54
2018-08-17T00:30:17.519Z,73.83
2018-08-17T00:31:17.550Z,73.63
2018-08-17T00:32:17.566Z,73.15
2018-08-17T00:33:17.591Z,73.54
2018-08-17T00:34:17.615Z,72.96
2018-08-17T00:35:17.641Z,73.25
2018-08-17T00:36:17.665Z,73.54
2018-08-17T00:37:17.694Z,73.73
2018-08-17T00:38:17.713Z,73.15
2018-08-17T00:39:32.398Z,73.15
2018-08-17T00:40:17.762Z,73.54
2018-08-17T00:41:17.789Z,73.35
2018-08-17T00:42:17.815Z,73.63
2018-08-17T00:43:17.836Z,73.44
2018-08-17T00:44:17.858Z,73.15
2018-08-17T00:46:17.911Z,73.92
2018-08-17T00:47:17.673Z,74.21
2018-08-17T00:48:17.968Z,73.44
2018-08-17T00:50:18.007Z,74.02
2018-08-17T00:51:18.041Z,73.73
2018-08-17T00:52:18.055Z,73.63
2018-08-17T00:53:18.079Z,73.83
2018-08-17T00:54:32.766Z,73.83
2018-08-17T00:55:18.129Z,74.11
2018-08-17T00:56:17.895Z,73.83
2018-08-17T00:57:17.919Z,74.02
2018-08-17T00:58:18.201Z,74.3
2018-08-17T00:59:18.223Z,74.3
2018-08-17T01:00:18.248Z,74.3
2018-08-17T01:01:18.273Z,74.21
2018-08-17T01:02:18.301Z,74.79
2018-08-17T01:03:18.069Z,74.65
2018-08-17T01:04:18.346Z,74.75
2018-08-17T01:05:18.373Z,75.04
2018-08-17T01:06:18.395Z,74.75
2018-08-17T01:07:18.162Z,74.65
2018-08-17T01:08:18.452Z,74.75
2018-08-17T01:09:18.212Z,75.13
2018-08-17T01:10:18.493Z,75.23
2018-08-17T01:11:18.517Z,74.46
2018-08-17T01:12:18.552Z,74.75
2018-08-17T01:13:18.567Z,74.75
2018-08-17T01:14:18.332Z,75.52
2018-08-17T01:15:18.614Z,74.75
2018-08-17T01:16:18.639Z,75.52
2018-08-17T01:17:18.666Z,74.65
2018-08-17T01:18:18.686Z,75.62
2018-08-17T01:19:18.710Z,75.32
2018-08-17T01:20:18.740Z,75.52
2018-08-17T01:21:18.763Z,75.23
2018-08-17T01:22:18.794Z,75.04
2018-08-17T01:23:18.808Z,75.13
2018-08-17T01:24:18.831Z,75.42
2018-08-17T01:25:18.857Z,75.42
2018-08-17T01:26:33.541Z,75.42
2018-08-17T01:27:18.905Z,75.32
2018-08-17T01:28:18.940Z,75.23
2018-08-17T01:29:18.956Z,75.32
2018-08-17T01:30:18.976Z,74.75
2018-08-17T01:31:19.002Z,75.32
2018-08-17T01:32:19.026Z,75.42
2018-08-17T01:33:19.059Z,75.23
2018-08-17T01:34:18.816Z,76
2018-08-17T01:35:19.101Z,75.77
2018-08-17T01:36:19.121Z,75.62
2018-08-17T01:37:19.149Z,75.81
2018-08-17T01:38:19.174Z,75.62
2018-08-17T01:39:18.938Z,76.06
2018-08-17T01:40:19.223Z,76.06
2018-08-17T01:41:19.241Z,76.25
2018-08-17T01:42:33.928Z,76.82
2018-08-17T01:43:19.291Z,76.82
2018-08-17T01:44:19.313Z,76.54
2018-08-17T01:45:19.082Z,76.54
2018-08-17T01:46:19.364Z,77.21
2018-08-17T01:47:19.389Z,76.82
2018-08-17T01:48:19.154Z,76.73
2018-08-17T01:49:19.437Z,76.64
2018-08-17T01:52:19.507Z,76.73
2018-08-17T01:53:19.533Z,76.92
2018-08-17T01:54:19.557Z,76.92
2018-08-17T01:55:19.581Z,77.01
2018-08-17T01:56:19.606Z,77.01
2018-08-17T01:57:19.627Z,77.01
2018-08-17T01:58:34.313Z,77.21
2018-08-17T01:59:19.680Z,77.01
2018-08-17T02:00:19.705Z,76.92
2018-08-17T02:01:19.721Z,77.01
2018-08-17T02:02:19.752Z,76.73
2018-08-17T02:03:19.774Z,76.82
2018-08-17T02:04:19.810Z,76.92
2018-08-17T02:05:19.823Z,76.92
2018-08-17T02:06:19.850Z,76.82
2018-08-17T02:07:19.871Z,76.44
2018-08-17T02:08:19.898Z,76.73
2018-08-17T02:09:19.918Z,76.73
2018-08-17T02:10:19.941Z,77.4
2018-08-17T02:11:19.970Z,76.73
2018-08-17T02:12:19.990Z,76.73
2018-08-17T02:13:19.756Z,76.64
2018-08-17T02:14:34.729Z,76.73
2018-08-17T02:15:20.065Z,76.64
2018-08-17T02:16:20.088Z,76.64
2018-08-17T02:17:20.110Z,76.82
2018-08-17T02:18:20.134Z,77.11
2018-08-17T02:19:20.159Z,76.64
2018-08-17T02:20:20.178Z,76.73
2018-08-17T02:21:19.947Z,76.64
2018-08-17T02:22:20.228Z,77.11
2018-08-17T02:23:20.253Z,77.11
2018-08-17T02:24:20.349Z,77.08
2018-08-17T02:25:20.303Z,77.11
2018-08-17T02:26:20.327Z,76.92
2018-08-17T02:27:20.352Z,77.88
2018-08-17T02:28:20.374Z,77.5
2018-08-17T02:29:35.060Z,77.65
2018-08-17T02:30:20.428Z,77.94
2018-08-17T02:31:20.447Z,78.08
2018-08-17T02:32:20.481Z,78.52
2018-08-17T02:33:20.507Z,78.42
2018-08-17T02:34:20.532Z,77.88
2018-08-17T02:35:20.550Z,78.13
2018-08-17T02:36:20.582Z,78.42
2018-08-17T02:37:20.594Z,78.42
2018-08-17T02:38:20.614Z,78.13
2018-08-17T02:39:20.640Z,78.42
2018-08-17T02:40:20.663Z,78.42
2018-08-17T02:41:20.693Z,78.8
2018-08-17T02:42:20.713Z,78.52
2018-08-17T02:43:20.734Z,78.52
2018-08-17T02:44:20.758Z,78.7
2018-08-17T02:45:20.782Z,78.52
2018-08-17T02:46:20.813Z,78.8
2018-08-17T02:47:20.938Z,78.9
2018-08-17T02:48:20.857Z,78.99
2018-08-17T02:49:20.877Z,79.96
2018-08-17T02:50:20.908Z,79.96
2018-08-17T02:51:20.929Z,79.96
2018-08-17T02:52:20.951Z,79.57
2018-08-17T02:53:20.981Z,79.96
2018-08-17T02:54:21.020Z,79.86
2018-08-17T02:55:21.022Z,79.19
2018-08-17T02:56:21.055Z,78.99
2018-08-17T02:57:21.071Z,79.19
2018-08-17T02:58:21.093Z,79.47
2018-08-17T02:59:21.120Z,79.57
2018-08-17T03:00:21.310Z,79.57
2018-08-17T03:01:35.830Z,79.96
2018-08-17T03:02:21.192Z,80.24
2018-08-17T03:03:21.215Z,80.15
2018-08-17T03:04:21.240Z,80.58
2018-08-17T03:05:21.263Z,80.49
2018-08-17T03:06:21.290Z,80.11
2018-08-17T03:07:21.306Z,79.96
2018-08-17T03:08:21.332Z,80.11
2018-08-17T03:09:21.354Z,80.58
2018-08-17T03:11:21.143Z,80.2
2018-08-17T03:12:21.430Z,80.4
2018-08-17T03:13:21.453Z,80.78
2018-08-17T03:14:21.475Z,80.58
2018-08-17T03:15:21.499Z,80.49
2018-08-17T03:16:21.533Z,80.49
2018-08-17T03:17:36.212Z,80.49
2018-08-17T03:18:21.570Z,80.58
2018-08-17T03:19:21.596Z,80.78
2018-08-17T03:20:21.619Z,80.68
2018-08-17T03:21:21.642Z,80.58
2018-08-17T03:23:21.696Z,80.58
2018-08-17T03:24:21.714Z,80.4
2018-08-17T03:25:21.737Z,80.4
2018-08-17T03:27:21.785Z,80.68
2018-08-17T03:28:21.813Z,80.87
2018-08-17T03:29:21.834Z,80.87
2018-08-17T03:30:21.873Z,81.93
2018-08-17T03:31:21.884Z,81.26
2018-08-17T03:32:21.903Z,81.26
2018-08-17T03:33:36.588Z,81.26
2018-08-17T03:34:21.952Z,82.12
2018-08-17T03:35:21.974Z,81.26
2018-08-17T03:36:22.001Z,81.35
2018-08-17T03:37:22.156Z,81.84
2018-08-17T03:38:22.046Z,81.35
2018-08-17T03:39:22.072Z,81.74
2018-08-17T03:40:22.094Z,81.64
2018-08-17T03:41:22.120Z,81.64
2018-08-17T03:42:21.881Z,81.64
2018-08-17T03:43:22.169Z,81.74
2018-08-17T03:44:22.195Z,81.64
2018-08-17T03:45:21.953Z,81.64
2018-08-17T03:46:22.235Z,81.74
2018-08-17T03:47:22.260Z,82.12
2018-08-17T03:48:22.289Z,81.64
2018-08-17T03:49:36.967Z,81.93
2018-08-17T03:50:22.329Z,82.12
2018-08-17T03:51:22.355Z,81.74
2018-08-17T03:52:22.390Z,82.31
2018-08-17T03:53:22.400Z,82.51
2018-08-17T03:54:22.423Z,82.31
2018-08-17T03:55:22.189Z,82.31
2018-08-17T03:56:22.472Z,82.03
2018-08-17T03:57:22.499Z,81.74
2018-08-17T03:58:22.262Z,81.93
2018-08-17T04:00:22.565Z,81.54
2018-08-17T04:01:22.590Z,82.03
2018-08-17T04:02:22.613Z,82.03
2018-08-17T04:03:22.638Z,82.03
2018-08-17T04:04:37.331Z,82.03
2018-08-17T04:05:22.694Z,82.31
2018-08-17T04:06:22.452Z,82.31
2018-08-17T04:07:22.737Z,82.12
2018-08-17T04:08:22.755Z,82.31
2018-08-17T04:10:22.810Z,82.12
2018-08-17T04:11:22.569Z,82.31
2018-08-17T04:12:22.850Z,82.12
2018-08-17T04:13:22.882Z,82.31
2018-08-17T04:14:22.898Z,82.03
2018-08-17T04:15:23.013Z,82.31
2018-08-17T04:16:22.947Z,82.41
2018-08-17T04:17:22.972Z,82.12
2018-08-17T04:18:22.996Z,82.31
2018-08-17T04:19:23.017Z,82.12
2018-08-17T04:20:23.038Z,82.31
2018-08-17T04:21:23.065Z,82.41
2018-08-17T04:22:23.187Z,82.03
2018-08-17T04:23:23.110Z,82.12
2018-08-17T04:24:23.134Z,81.74
2018-08-17T04:25:23.157Z,82.03
2018-08-17T04:26:23.186Z,81.35
2018-08-17T04:27:23.213Z,81.84
2018-08-17T04:28:23.228Z,81.54
2018-08-17T04:29:23.254Z,81.64
2018-08-17T04:31:23.350Z,81.74
2018-08-17T04:32:23.326Z,82.03
2018-08-17T04:33:23.347Z,81.35
2018-08-17T04:34:23.375Z,81.1
2018-08-17T04:35:23.481Z,81.01
2018-08-17T04:36:38.080Z,80.91
2018-08-17T04:37:23.443Z,81.1
2018-08-17T04:38:23.214Z,80.53
2018-08-17T04:39:23.491Z,80.43
2018-08-17T04:40:23.514Z,80.43
2018-08-17T04:41:23.538Z,80.91
2018-08-17T04:42:23.305Z,80.63
2018-08-17T04:43:23.327Z,80.63
2018-08-17T04:44:23.610Z,80.34
2018-08-17T04:45:23.376Z,80.82
2018-08-17T04:46:23.655Z,79.67
2018-08-17T04:47:23.683Z,80.05
2018-08-17T04:48:23.705Z,79.57
2018-08-17T04:49:23.996Z,79.22
2018-08-17T04:50:23.751Z,78.94
2018-08-17T04:51:23.521Z,78.84
2018-08-17T04:52:38.462Z,79.03
2018-08-17T04:53:23.831Z,78.65
2018-08-17T04:54:23.849Z,78.55
2018-08-17T04:55:23.613Z,77.06
2018-08-17T04:56:23.897Z,75.07
2018-08-17T04:58:23.945Z,70.89
2018-08-17T04:59:23.967Z,69.67
2018-08-17T05:00:24.001Z,67.78
2018-08-17T05:01:23.759Z,65.98
2018-08-17T05:02:24.046Z,64.66
2018-08-17T05:03:23.848Z,63.53
2018-08-17T05:04:24.100Z,62.98
2018-08-17T05:05:24.118Z,60.41
2018-08-17T05:06:24.144Z,59.47
2018-08-17T05:07:24.174Z,58.34
2018-08-17T05:08:38.859Z,57.2
2018-08-17T05:09:24.226Z,56.82
2018-08-17T05:10:23.993Z,55.98
2018-08-17T05:11:24.019Z,55.58
2018-08-17T05:12:24.303Z,54.91
2018-08-17T05:13:24.329Z,54.45
2018-08-17T05:14:24.359Z,54.26
2018-08-17T05:15:24.389Z,53.61
2018-08-17T05:16:24.412Z,52.66
2018-08-17T05:17:24.182Z,52.08
2018-08-17T05:18:24.474Z,51.62
2018-08-17T05:19:24.496Z,52.11
2018-08-17T05:20:24.525Z,52.08
2018-08-17T05:21:24.640Z,50.65
2018-08-17T05:22:24.583Z,50.29
2018-08-17T05:23:24.411Z,49.73
2018-08-17T05:24:39.302Z,49.34
2018-08-17T05:25:24.674Z,49.66
2018-08-17T05:26:24.703Z,48.78
2018-08-17T05:27:24.728Z,48.41
2018-08-17T05:28:24.756Z,48.68
2018-08-17T05:29:24.792Z,48.58
2018-08-17T05:30:24.817Z,48.68
2018-08-17T05:31:24.849Z,48.49
2018-08-17T05:33:24.911Z,48.58
2018-08-17T05:34:24.942Z,48.78
2018-08-17T05:35:24.971Z,47.91
2018-08-17T05:36:25.011Z,47.54
2018-08-17T05:37:25.031Z,47.27
2018-08-17T05:38:24.806Z,47.08
2018-08-17T05:39:39.758Z,46.13
2018-08-17T05:40:25.126Z,46.15
2018-08-17T05:41:25.158Z,46.13
2018-08-17T05:42:25.190Z,44.9
2018-08-17T05:43:25.220Z,44.71
2018-08-17T05:44:25.252Z,44.52
2018-08-17T05:45:25.284Z,44.23
2018-08-17T05:46:25.316Z,44.42
2018-08-17T05:47:25.347Z,44.4
2018-08-17T05:48:25.380Z,44.62
2018-08-17T05:51:25.480Z,43.47
2018-08-17T05:52:25.509Z,43.57
2018-08-17T05:53:25.543Z,44.05
2018-08-17T05:54:25.576Z,43.66
2018-08-17T05:55:25.610Z,42.88
2018-08-17T05:56:25.641Z,42.63
2018-08-17T05:57:25.415Z,42.54
2018-08-17T05:58:25.710Z,42.05
2018-08-17T05:59:25.738Z,42.36
2018-08-17T06:00:25.772Z,41.28
2018-08-17T06:01:25.806Z,41.11
2018-08-17T06:03:25.871Z,41.19
2018-08-17T06:04:25.907Z,42.07
2018-08-17T06:06:25.976Z,40.74
2018-08-17T06:07:26.006Z,42.26
2018-08-17T06:08:26.038Z,42.83
2018-08-17T06:09:26.076Z,42.54
2018-08-17T06:10:26.111Z,42.34
2018-08-17T06:11:40.818Z,42.07
2018-08-17T06:12:26.178Z,42.54
2018-08-17T06:13:26.213Z,42.73
2018-08-17T06:14:26.244Z,42.46
2018-08-17T06:15:26.281Z,41.77
2018-08-17T06:16:26.311Z,41.09
2018-08-17T06:17:26.380Z,40.72
2018-08-17T06:18:26.380Z,40.92
2018-08-17T06:19:26.484Z,39.67
2018-08-17T06:20:26.450Z,40.16
2018-08-17T06:21:26.483Z,39.76
2018-08-17T06:22:26.525Z,39.86
2018-08-17T06:23:26.563Z,40.27
2018-08-17T06:24:26.335Z,40.06
2018-08-17T06:25:26.627Z,40.25
2018-08-17T06:26:26.668Z,39.86
2018-08-17T06:27:41.358Z,40.56
2018-08-17T06:28:26.830Z,39.98
2018-08-17T06:29:26.507Z,39.51
2018-08-17T06:30:26.799Z,38.65
2018-08-17T06:32:26.867Z,38.18
2018-08-17T06:33:26.905Z,37.41
2018-08-17T06:34:26.939Z,37.79
2018-08-17T06:36:26.754Z,38.35
2018-08-17T06:37:27.324Z,38.82
2018-08-17T06:38:27.088Z,38.63
2018-08-17T06:39:27.120Z,39.22
2018-08-17T06:41:27.193Z,38.34
2018-08-17T06:42:26.994Z,39.31
2018-08-17T06:43:42.025Z,38.92
2018-08-17T06:44:27.038Z,38.75
2018-08-17T06:45:27.075Z,38.26
2018-08-17T06:46:27.368Z,37.47
2018-08-17T06:47:27.402Z,37.51
2018-08-17T06:48:27.438Z,37.31
2018-08-17T06:49:27.489Z,36.94
2018-08-17T06:50:27.511Z,36.92
2018-08-17T06:51:27.546Z,37.04
2018-08-17T06:52:27.583Z,37.21
2018-08-17T06:53:27.624Z,37.41
2018-08-17T06:54:27.655Z,36.43
2018-08-17T06:55:27.699Z,37.04
2018-08-17T06:56:27.728Z,35.68
2018-08-17T06:57:27.765Z,35.13
2018-08-17T06:58:27.796Z,34.85
2018-08-17T06:59:42.509Z,34.28
2018-08-17T07:00:27.884Z,34.1
2018-08-17T07:01:27.909Z,33.98
2018-08-17T07:02:27.999Z,33.61
2018-08-17T07:03:27.982Z,33.13
2018-08-17T07:04:28.018Z,33.22
2018-08-17T07:05:28.053Z,33.61
2018-08-17T07:06:28.093Z,33.13
2018-08-17T07:07:28.125Z,33.23
2018-08-17T07:08:28.164Z,33.41
2018-08-17T07:09:28.448Z,33.31
2018-08-17T07:10:28.241Z,33.03
2018-08-17T07:11:28.286Z,32.86
2018-08-17T07:12:28.315Z,33.03
2018-08-17T07:13:28.349Z,32.93
2018-08-17T07:14:43.055Z,33.23
2018-08-17T07:15:28.425Z,33.03
2018-08-17T07:16:28.501Z,33.91
2018-08-17T07:17:28.506Z,33.61
2018-08-17T07:18:28.538Z,33.7
2018-08-17T07:19:28.578Z,33.89
2018-08-17T07:20:28.615Z,34.2
2018-08-17T07:21:28.752Z,34.1
2018-08-17T07:22:28.695Z,34.28
2018-08-17T07:23:28.733Z,33.49
2018-08-17T07:24:28.763Z,33.12
2018-08-17T07:25:28.800Z,33.41
2018-08-17T07:26:28.839Z,33.7
2018-08-17T07:27:28.872Z,33.12
2018-08-17T07:28:28.652Z,33.02
2018-08-17T07:29:28.961Z,33.39
2018-08-17T07:30:28.985Z,33.69
2018-08-17T07:31:29.020Z,34.46
2018-08-17T07:32:29.059Z,35.49
2018-08-17T07:33:28.842Z,35.29
2018-08-17T07:34:29.145Z,34.44
2018-08-17T07:35:29.193Z,33.89
2018-08-17T07:36:29.213Z,33.49
2018-08-17T07:37:28.988Z,33.51
2018-08-17T07:38:29.028Z,33.61
2018-08-17T07:39:29.061Z,33.31
2018-08-17T07:40:29.357Z,33.51
2018-08-17T07:41:29.398Z,34.39
2018-08-17T07:42:29.437Z,34.18
2018-08-17T07:43:29.472Z,34.75
2018-08-17T07:44:29.505Z,35.23
2018-08-17T07:45:29.545Z,35.03
2018-08-17T07:46:44.243Z,34.66
2018-08-17T07:47:29.622Z,34.08
2018-08-17T07:48:29.655Z,33.12
2018-08-17T07:49:29.697Z,32.93
2018-08-17T07:50:29.727Z,33.41
2018-08-17T07:51:29.765Z,33.13
2018-08-17T07:52:29.802Z,31.95
2018-08-17T07:53:29.841Z,32.17
2018-08-17T07:54:29.878Z,32.43
2018-08-17T07:55:29.656Z,33.2
2018-08-17T07:56:29.954Z,33.29
2018-08-17T07:57:29.993Z,33.89
2018-08-17T07:58:30.026Z,33.98
2018-08-17T07:59:30.063Z,33.98
2018-08-17T08:00:30.097Z,33.98
2018-08-17T08:01:30.136Z,33.69
2018-08-17T08:02:44.838Z,33
2018-08-17T08:03:30.210Z,32.84
2018-08-17T08:04:30.255Z,32.17
2018-08-17T08:05:30.291Z,31.51
2018-08-17T08:06:30.066Z,31.51
2018-08-17T08:07:30.368Z,30.54
2018-08-17T08:08:30.395Z,31.14
2018-08-17T08:09:30.432Z,30.06
2018-08-17T08:10:30.469Z,30.47
2018-08-17T08:11:30.512Z,29.58
2018-08-17T08:12:30.555Z,29.6
2018-08-17T08:13:30.639Z,29.89
2018-08-17T08:14:30.617Z,29.99
2018-08-17T08:15:30.662Z,29.97
2018-08-17T08:16:30.432Z,30.07
2018-08-17T08:17:30.469Z,30.37
2018-08-17T08:18:45.431Z,30.44
2018-08-17T08:19:30.545Z,30.93
2018-08-17T08:20:30.757Z,31.39
2018-08-17T08:21:30.625Z,30.62
2018-08-17T08:22:30.656Z,30.35
2018-08-17T08:23:30.697Z,30.35
2018-08-17T08:24:30.730Z,29.94
2018-08-17T08:25:30.770Z,31.32
2018-08-17T08:26:30.812Z,31.31
2018-08-17T08:29:31.175Z,31.39
2018-08-17T08:30:31.210Z,31.01
2018-08-17T08:31:30.993Z,31.01
2018-08-17T08:33:31.322Z,31.97
2018-08-17T08:34:46.022Z,31.2
2018-08-17T08:35:31.394Z,31.01
2018-08-17T08:36:31.431Z,31
2018-08-17T08:37:31.469Z,31.57
2018-08-17T08:38:31.507Z,31.29
2018-08-17T08:39:31.544Z,31.69
2018-08-17T08:40:31.321Z,30.91
2018-08-17T08:42:31.649Z,30.22
2018-08-17T08:43:31.432Z,29.86
2018-08-17T08:44:31.730Z,29.47
2018-08-17T08:45:31.873Z,29.3
2018-08-17T08:46:31.801Z,29.19
2018-08-17T08:47:31.838Z,28.91
2018-08-17T08:48:31.873Z,28.92
2018-08-17T08:49:46.574Z,29.51
2018-08-17T08:50:31.950Z,28.52
2018-08-17T08:51:31.982Z,28.52
2018-08-17T08:52:32.017Z,28.41
2018-08-17T08:53:32.056Z,28.62
2018-08-17T08:54:32.093Z,27.44
2018-08-17T08:55:32.129Z,28.53
2018-08-17T08:56:32.189Z,28.03
2018-08-17T08:57:32.208Z,28.91
2018-08-17T08:58:32.247Z,28.91
2018-08-17T08:59:32.278Z,28.62
2018-08-17T09:00:32.314Z,28.72
2018-08-17T09:01:32.099Z,29.6
2018-08-17T09:02:32.387Z,28.72
2018-08-17T09:03:32.425Z,28.51
2018-08-17T09:04:32.461Z,28.91
2018-08-17T09:05:32.503Z,29.88
2018-08-17T09:06:32.538Z,29.55
2018-08-17T09:07:32.569Z,29.38
2018-08-17T09:08:32.608Z,29.27
2018-08-17T09:09:32.649Z,29.47
2018-08-17T09:10:32.678Z,29.76
2018-08-17T09:11:32.714Z,29.09
2018-08-17T09:12:32.751Z,29.3
2018-08-17T09:13:32.909Z,29.5
2018-08-17T09:14:32.824Z,29.83
2018-08-17T09:15:32.861Z,29.93
2018-08-17T09:16:32.896Z,29.17
2018-08-17T09:17:32.931Z,28.91
2018-08-17T09:18:32.967Z,28.42
2018-08-17T09:19:33.009Z,27.84
2018-08-17T09:20:33.151Z,27.86
2018-08-17T09:21:47.741Z,27.86
2018-08-17T09:22:33.113Z,27.56
2018-08-17T09:23:33.151Z,27.48
2018-08-17T09:24:33.185Z,27.48
2018-08-17T09:25:33.220Z,26.78
2018-08-17T09:26:33.257Z,27.19
2018-08-17T09:27:33.292Z,26.8
2018-08-17T09:28:33.328Z,26.61
2018-08-17T09:30:33.406Z,26.32
2018-08-17T09:33:33.558Z,27.29
2018-08-17T09:34:33.548Z,27.09
2018-08-17T09:35:33.583Z,25.92
2018-08-17T09:36:33.620Z,25.73
2018-08-17T09:37:48.320Z,25.35
2018-08-17T09:38:33.691Z,24.98
2018-08-17T09:39:33.764Z,25.48
2018-08-17T09:40:33.767Z,25.84
2018-08-17T09:41:33.841Z,26.6
2018-08-17T09:42:33.834Z,25.72
2018-08-17T09:44:33.908Z,26.78
2018-08-17T09:45:33.944Z,27.08
2018-08-17T09:46:33.983Z,25.91
2018-08-17T09:47:34.019Z,26.32
2018-08-17T09:48:34.054Z,26.42
2018-08-17T09:49:34.090Z,26.21
2018-08-17T09:50:34.121Z,25.52
2018-08-17T09:51:33.903Z,25.66
2018-08-17T09:52:33.938Z,25.05
2018-08-17T09:53:48.896Z,26.34
2018-08-17T09:54:34.268Z,25.55
2018-08-17T09:55:34.304Z,24.67
2018-08-17T09:56:34.348Z,24.77
2018-08-17T09:57:34.542Z,25.24
2018-08-17T09:58:34.415Z,25.72
2018-08-17T09:59:34.446Z,26.31
2018-08-17T10:01:34.530Z,26.5
2018-08-17T10:02:34.555Z,26.4
2018-08-17T10:03:34.596Z,26.71
2018-08-17T10:04:34.628Z,26.42
2018-08-17T10:05:34.707Z,26.42
2018-08-17T10:06:34.695Z,26.32
2018-08-17T10:07:34.734Z,26.03
2018-08-17T10:08:34.768Z,25.82
2018-08-17T10:09:49.468Z,26.81
2018-08-17T10:10:34.841Z,26.8
2018-08-17T10:11:34.877Z,26.78
2018-08-17T10:12:34.909Z,27.28
2018-08-17T10:13:34.951Z,27.28
2018-08-17T10:14:34.985Z,26.89
2018-08-17T10:15:35.017Z,26.49
2018-08-17T10:16:35.054Z,26.31
2018-08-17T10:17:34.832Z,26.8
2018-08-17T10:18:35.123Z,26.87
2018-08-17T10:19:35.157Z,26.78
2018-08-17T10:20:35.197Z,26.1
2018-08-17T10:21:36.056Z,25.81
2018-08-17T10:22:35.266Z,26.21
2018-08-17T10:23:35.298Z,25.62
2018-08-17T10:24:49.999Z,26.12
2018-08-17T10:25:35.372Z,26.31
2018-08-17T10:26:35.404Z,26.1
2018-08-17T10:27:35.181Z,26.31
2018-08-17T10:28:35.474Z,26.1
2018-08-17T10:29:35.509Z,27.28
2018-08-17T10:30:35.546Z,26.77
2018-08-17T10:31:35.587Z,27.75
2018-08-17T10:32:35.356Z,27.73
2018-08-17T10:33:35.645Z,27.64
2018-08-17T10:34:35.687Z,28.31
2018-08-17T10:35:35.717Z,27.62
2018-08-17T10:36:35.853Z,27.92
2018-08-17T10:37:35.787Z,28.99
2018-08-17T10:38:35.821Z,29.37
2018-08-17T10:39:35.858Z,30.22
2018-08-17T10:40:35.954Z,30.11
2018-08-17T10:41:35.936Z,30.08
2018-08-17T10:42:35.960Z,30.28
2018-08-17T10:43:35.993Z,30.58
2018-08-17T10:44:36.029Z,30.49
2018-08-17T10:45:36.063Z,30.49
2018-08-17T10:46:36.098Z,30.98
2018-08-17T10:47:35.875Z,31.18
2018-08-17T10:48:36.224Z,30.51
2018-08-17T10:49:36.221Z,29.83
2018-08-17T10:50:36.234Z,30.03
2018-08-17T10:51:36.269Z,30.13
2018-08-17T10:52:36.044Z,29.75
2018-08-17T10:53:36.339Z,29.85
2018-08-17T10:54:36.113Z,29.76
2018-08-17T10:56:51.202Z,29.75
2018-08-17T10:57:36.786Z,29.27
2018-08-17T10:58:36.250Z,29.85
2018-08-17T10:59:36.281Z,29.35
2018-08-17T11:00:36.315Z,29.35
2018-08-17T11:02:36.640Z,29.16
2018-08-17T11:03:36.672Z,29.27
2018-08-17T11:06:36.774Z,28.96
2018-08-17T11:07:36.809Z,29.35
2018-08-17T11:08:36.840Z,29.46
2018-08-17T11:09:36.618Z,29.35
2018-08-17T11:10:36.912Z,29.35
2018-08-17T11:11:36.940Z,29.65
2018-08-17T11:12:51.639Z,30.04
2018-08-17T11:13:37.198Z,29.35
2018-08-17T11:14:37.040Z,29.35
2018-08-17T11:15:37.077Z,29.66
2018-08-17T11:16:37.109Z,29.46
2018-08-17T11:17:37.149Z,28.48
2018-08-17T11:18:37.178Z,28.68
2018-08-17T11:19:37.209Z,28.96
2018-08-17T11:20:36.985Z,29.35
2018-08-17T11:22:37.309Z,30.02
2018-08-17T11:23:37.343Z,30.19
2018-08-17T11:24:37.375Z,30.02
2018-08-17T11:25:37.418Z,29.53
2018-08-17T11:26:37.447Z,29.93
2018-08-17T11:27:37.473Z,29.55
2018-08-17T11:28:52.170Z,29.75
2018-08-17T11:29:37.548Z,29.27
2018-08-17T11:30:37.316Z,28.97
2018-08-17T11:31:37.607Z,29.07
2018-08-17T11:32:37.639Z,29.46
2018-08-17T11:33:37.674Z,29.46
2018-08-17T11:34:37.452Z,29.52
2018-08-17T11:35:37.485Z,29.31
2018-08-17T11:36:37.511Z,29.71
2018-08-17T11:37:37.806Z,30.4
2018-08-17T11:38:37.846Z,30.97
2018-08-17T11:40:37.907Z,30.87
2018-08-17T11:41:38.126Z,30.18
2018-08-17T11:42:37.969Z,30.46
2018-08-17T11:43:38.004Z,30.45
2018-08-17T11:44:52.697Z,30.66
2018-08-17T11:45:38.065Z,30.66
2018-08-17T11:46:38.103Z,30.95
2018-08-17T11:47:38.139Z,30.38
2018-08-17T11:48:38.179Z,29.8
2018-08-17T11:49:38.205Z,29.72
2018-08-17T11:50:38.229Z,29.62
2018-08-17T11:51:38.006Z,29.92
2018-08-17T11:52:38.299Z,29.24
2018-08-17T11:53:38.647Z,29.14
2018-08-17T11:55:38.404Z,29.34
2018-08-17T11:56:38.426Z,29.24
2018-08-17T11:57:38.199Z,29.34
2018-08-17T11:58:38.233Z,29.53
2018-08-17T11:59:53.192Z,29.62
2018-08-17T12:00:38.567Z,29.82
2018-08-17T12:01:38.588Z,29.82
2018-08-17T12:02:38.623Z,30.02
2018-08-17T12:03:38.654Z,29.63
2018-08-17T12:04:38.685Z,29.46
2018-08-17T12:05:38.724Z,28.97
2018-08-17T12:06:38.752Z,28.88
2018-08-17T12:07:38.789Z,28.88
2018-08-17T12:08:38.952Z,28.68
2018-08-17T12:09:38.850Z,28
2018-08-17T12:10:38.888Z,28.4
2018-08-17T12:11:38.912Z,28.38
2018-08-17T12:12:38.688Z,28.37
2018-08-17T12:13:38.721Z,28.66
2018-08-17T12:14:39.017Z,28.77
2018-08-17T12:15:39.146Z,28.36
2018-08-17T12:16:39.076Z,28.65
2018-08-17T12:17:38.850Z,29.33
2018-08-17T12:18:39.232Z,28.93
2018-08-17T12:19:39.175Z,29.31
2018-08-17T12:20:39.209Z,29.31
2018-08-17T12:21:38.983Z,29.33
2018-08-17T12:23:39.308Z,29.9
2018-08-17T12:24:39.250Z,29.39
2018-08-17T12:26:39.145Z,29.99
2018-08-17T12:27:39.432Z,30
2018-08-17T12:28:39.468Z,30.08
2018-08-17T12:29:39.500Z,29.71
2018-08-17T12:30:39.531Z,30.47
2018-08-17T12:31:54.227Z,30.38
2018-08-17T12:32:39.598Z,30.18
2018-08-17T12:33:39.632Z,30.38
2018-08-17T12:34:39.663Z,30.58
2018-08-17T12:35:39.696Z,30.85
2018-08-17T12:36:39.731Z,30.18
2018-08-17T12:37:39.764Z,30.18
2018-08-17T12:38:39.788Z,29.89
2018-08-17T12:39:39.818Z,29.99
2018-08-17T12:40:39.853Z,30.08
2018-08-17T12:42:39.924Z,29.77
2018-08-17T12:43:39.952Z,29.87
2018-08-17T12:44:39.990Z,30.17
2018-08-17T12:45:40.022Z,29.99
2018-08-17T12:46:40.177Z,30.18
2018-08-17T12:47:54.742Z,29.99
2018-08-17T12:48:39.853Z,29.99
2018-08-17T12:49:39.882Z,29.3
2018-08-17T12:50:39.925Z,29.21
2018-08-17T12:51:40.211Z,28.92
2018-08-17T12:52:40.239Z,28.92
2018-08-17T12:53:40.272Z,28.52
2018-08-17T12:54:40.303Z,28.64
2018-08-17T12:55:40.338Z,28.44
2018-08-17T12:56:40.367Z,28.05
2018-08-17T12:57:40.402Z,28.14
2018-08-17T12:58:40.175Z,28.24
2018-08-17T12:59:40.474Z,28.72
2018-08-17T13:00:40.501Z,28.54
2018-08-17T13:01:40.529Z,28.16
2018-08-17T13:02:40.568Z,28.36
2018-08-17T13:03:55.255Z,28.08
2018-08-17T13:04:40.626Z,28.17
2018-08-17T13:05:40.713Z,28.08
2018-08-17T13:06:40.694Z,28.27
2018-08-17T13:07:40.467Z,28.08
2018-08-17T13:08:40.756Z,27.97
2018-08-17T13:09:40.792Z,28.86
2018-08-17T13:10:40.887Z,28.26
2018-08-17T13:12:40.627Z,27.86
2018-08-17T13:13:40.918Z,26.89
2018-08-17T13:14:40.953Z,26.78
2018-08-17T13:15:40.982Z,26.68
2018-08-17T13:16:41.015Z,26.79
2018-08-17T13:17:41.045Z,27.19
2018-08-17T13:18:41.079Z,27.37
2018-08-17T13:19:55.774Z,27.67
2018-08-17T13:20:41.142Z,27.48
2018-08-17T13:21:41.182Z,27.96
2018-08-17T13:22:40.954Z,28.26
2018-08-17T13:23:41.247Z,27.85
2018-08-17T13:24:41.280Z,29
2018-08-17T13:25:41.304Z,29.68
2018-08-17T13:26:41.335Z,29.19
2018-08-17T13:27:41.368Z,29.76
2018-08-17T13:28:41.401Z,29.96
2018-08-17T13:29:41.451Z,29.86
2018-08-17T13:30:41.464Z,30.07
2018-08-17T13:31:41.499Z,29.87
2018-08-17T13:32:41.530Z,29.87
2018-08-17T13:33:41.562Z,29.89
2018-08-17T13:34:56.258Z,29.79
2018-08-17T13:35:41.633Z,29.8
2018-08-17T13:36:41.717Z,29.31
2018-08-17T13:37:41.688Z,29.41
2018-08-17T13:38:41.724Z,28.44